Locust Hill, Kentucky
Current Conditions -  °F | °C
As of 9:05 AM on Monday 24 Nov 2014 (Local Time) from KFTK Reporting Station
Overcast Overcast  
Wind Chill: 52°   Ceiling: 1500
Heat Index: 52°   Visibility: 10mi
Dew Point: 46°   Wind: 20mph
Humidity: 82%   Direction: 250°WSW
Pressure: 29.54"   Gusts: 39mph
Location:  37.7463°N, 86.3536°W
Report Text: KFTK 241505Z AUTO 25017G34KT 10SM BKN015 BKN021 OVC028 11/08 A2954 RMK AO2 CIG 015V028 BKN015 V SCT PRESRR
Loading
Personal Weather Stations






























Interactive Weather Map New forecast layout! Learn more

10-Day Weather Forecast

Advertisements
Track Severe Weather on mobile